Time;durP1;ratioP1;P1;durP2;ratioP2;P2;SDS_P1;SDS_P2;PMS_P1;PMS_P2;Temp;Humidity;BMP_temperature;BMP_pressure;BME280_temperature;BME280_humidity;BME280_pressure;Samples;Min_cycle;Max_cycle;Signal;HPM_P1;HPM_P2
2021/11/03 00:01:38;;;;;;;1.42;0.43;;;17.50;70.50;;;;;;5078788;28;20030;-69
2021/11/03 00:04:08;;;;;;;6.07;1.17;;;17.50;70.50;;;;;;5079441;28;20537;-71
2021/11/03 02:36:08;;;;;;;5.15;0.93;;;16.40;76.20;;;;;;5077885;27;20523;-69
2021/11/03 02:38:40;;;;;;;0.85;0.60;;;17.00;73.70;;;;;;5080001;28;20020;-68
2021/11/03 02:41:15;;;;;;;2.97;0.80;;;16.90;73.50;;;;;;5078485;28;20059;-69
2021/11/03 02:43:47;;;;;;;5.03;1.20;;;16.90;73.60;;;;;;5077549;28;20028;-69
2021/11/03 02:46:15;;;;;;;3.28;0.85;;;16.90;73.30;;;;;;5077429;28;20038;-69
2021/11/03 02:48:43;;;;;;;2.45;0.73;;;16.90;73.70;;;;;;5078841;28;20119;-69
2021/11/03 02:51:16;;;;;;;3.63;1.00;;;16.90;74.00;;;;;;5078840;28;20052;-69
2021/11/03 02:53:53;;;;;;;2.83;0.88;;;16.80;73.90;;;;;;5075772;28;20455;-69
2021/11/03 02:56:27;;;;;;;5.60;0.95;;;16.80;74.10;;;;;;5079232;28;20077;-70
2021/11/03 02:58:54;;;;;;;2.70;1.05;;;16.80;74.10;;;;;;5077054;28;20107;-69
2021/11/03 03:01:34;;;;;;;4.18;1.10;;;16.70;74.20;;;;;;5079470;28;20023;-71
2021/11/03 03:04:02;;;;;;;2.20;0.93;;;16.70;74.20;;;;;;5077191;28;20039;-69
2021/11/03 03:06:31;;;;;;;5.50;2.05;;;16.70;74.40;;;;;;5077602;28;20020;-69
2021/11/03 03:08:58;;;;;;;1.85;0.80;;;16.70;74.30;;;;;;5079770;28;20591;-70
2021/11/03 03:11:28;;;;;;;3.33;0.93;;;16.70;74.40;;;;;;5076859;28;20062;-70
2021/11/03 03:13:54;;;;;;;1.05;0.93;;;16.60;74.40;;;;;;5078395;28;20030;-70
2021/11/03 03:16:22;;;;;;;5.03;0.68;;;16.60;74.40;;;;;;5076524;28;20421;-71
2021/11/03 03:18:49;;;;;;;4.20;1.63;;;16.60;74.80;;;;;;5078429;28;20640;-69
2021/11/03 03:21:18;;;;;;;3.40;1.10;;;16.60;75.00;;;;;;5077753;28;20051;-70
2021/11/03 03:23:45;;;;;;;2.47;1.17;;;16.60;74.80;;;;;;5077701;28;20154;-69
2021/11/03 03:26:13;;;;;;;4.35;0.88;;;16.60;75.20;;;;;;5065570;28;20021;-70
2021/11/03 03:28:40;;;;;;;3.20;0.65;;;16.50;75.10;;;;;;5063936;28;20030;-70
2021/11/03 03:31:08;;;;;;;7.95;1.20;;;16.50;75.30;;;;;;5064364;28;20039;-71
2021/11/03 03:33:35;;;;;;;2.33;1.23;;;16.50;75.60;;;;;;5061602;28;20467;-69
2021/11/03 03:36:02;;;;;;;5.25;1.00;;;16.50;75.70;;;;;;5064223;28;20491;-71
2021/11/03 03:38:28;;;;;;;2.30;0.77;;;16.50;75.80;;;;;;5063457;28;20036;-70
2021/11/03 03:40:55;;;;;;;2.85;1.20;;;16.50;75.90;;;;;;5063817;28;20035;-69
2021/11/03 03:43:22;;;;;;;4.38;0.70;;;16.50;75.80;;;;;;5063673;28;20020;-70
2021/11/03 03:45:48;;;;;;;5.18;0.95;;;16.50;75.70;;;;;;5063157;28;20033;-69
2021/11/03 03:48:15;;;;;;;2.25;0.98;;;16.50;75.60;;;;;;5063959;28;20024;-69
2021/11/03 03:50:41;;;;;;;10.68;1.10;;;16.50;75.80;;;;;;5063316;28;20038;-72
2021/11/03 03:53:10;;;;;;;2.83;0.93;;;16.50;75.80;;;;;;5063413;28;20107;-67
2021/11/03 03:55:38;;;;;;;1.95;1.10;;;16.50;76.10;;;;;;5062406;28;20135;-67
2021/11/03 03:58:08;;;;;;;30.92;18.40;;;16.40;75.90;;;;;;5063953;28;20115;-72
2021/11/03 04:00:36;;;;;;;13.35;9.80;;;16.50;76.30;;;;;;5063761;28;20093;-66
2021/11/03 04:03:02;;;;;;;5.45;2.03;;;16.50;75.90;;;;;;5061672;28;20140;-66
2021/11/03 04:05:29;;;;;;;3.70;1.25;;;16.60;76.00;;;;;;5060358;28;21622;-64
2021/11/03 04:07:56;;;;;;;4.43;1.58;;;16.60;75.90;;;;;;5059211;28;20108;-65
2021/11/03 04:10:22;;;;;;;5.93;2.88;;;16.60;75.90;;;;;;5061890;28;20062;-72
2021/11/03 04:12:49;;;;;;;2.65;2.00;;;16.60;75.80;;;;;;5060072;28;20017;-73
2021/11/03 04:15:16;;;;;;;194.45;173.90;;;16.60;75.90;;;;;;5061634;28;20021;-74
2021/11/03 04:17:42;;;;;;;27.17;20.25;;;16.70;75.90;;;;;;5057901;28;20025;-69
2021/11/03 04:20:11;;;;;;;9.00;4.95;;;16.70;75.80;;;;;;5058274;28;20019;-68
2021/11/03 04:22:38;;;;;;;2.92;1.27;;;16.80;75.60;;;;;;5060524;28;20111;-72
2021/11/03 04:25:07;;;;;;;2.10;1.00;;;16.80;75.60;;;;;;5059401;28;20060;-72
2021/11/03 04:27:34;;;;;;;5.18;1.27;;;16.80;75.40;;;;;;5058240;28;20040;-71
2021/11/03 04:30:02;;;;;;;3.83;1.67;;;16.80;75.30;;;;;;5059953;28;20031;-77
2021/11/03 04:32:28;;;;;;;7.65;0.90;;;16.80;75.10;;;;;;5057767;28;20036;-75
2021/11/03 04:34:55;;;;;;;10.02;3.35;;;16.80;75.10;;;;;;5055133;28;20048;-74
2021/11/03 04:37:21;;;;;;;18.60;13.70;;;16.90;75.20;;;;;;5060287;28;20479;-73
2021/11/03 04:39:48;;;;;;;7.43;4.28;;;16.90;75.20;;;;;;5060050;28;20039;-76
2021/11/03 04:42:14;;;;;;;2.65;1.25;;;16.90;75.20;;;;;;5057080;28;20069;-73
2021/11/03 04:44:41;;;;;;;3.97;1.17;;;16.90;75.10;;;;;;5057956;28;20110;-75
2021/11/03 04:47:08;;;;;;;3.47;2.40;;;16.90;75.00;;;;;;5057661;28;20040;-66
2021/11/03 04:49:35;;;;;;;4.43;1.13;;;17.00;74.90;;;;;;5059336;28;20025;-73
2021/11/03 04:52:06;;;;;;;2.15;1.58;;;17.00;74.50;;;;;;5057117;28;20048;-72
2021/11/03 04:55:12;;;;;;;0.95;0.73;;;17.00;74.60;;;;;;5062437;28;20024;-71
2021/11/03 04:58:18;;;;;;;3.55;1.40;;;17.10;74.40;;;;;;5060810;28;20014;-71
2021/11/03 05:01:24;;;;;;;4.50;1.88;;;17.10;74.20;;;;;;5065177;28;20025;-70
2021/11/03 05:04:10;;;;;;;;;;;17.10;74.20;;;;;;5065553;28;20433;-71
2021/11/03 05:07:17;;;;;;;6.30;1.20;;;17.10;74.20;;;;;;5056939;28;19916;-71
2021/11/03 05:10:23;;;;;;;4.68;0.80;;;17.10;74.70;;;;;;5057911;28;20475;-69
2021/11/03 05:13:29;;;;;;;3.80;0.90;;;17.20;73.70;;;;;;5057123;28;20043;-69
2021/11/03 05:16:35;;;;;;;4.50;1.08;;;17.20;73.50;;;;;;5055125;28;20040;-71
2021/11/03 05:19:41;;;;;;;2.88;0.90;;;17.20;73.30;;;;;;5056204;28;20028;-72
2021/11/03 05:22:48;;;;;;;5.18;0.73;;;17.30;73.20;;;;;;5057316;28;20063;-70
2021/11/03 05:25:54;;;;;;;4.60;0.80;;;17.30;72.80;;;;;;5056364;28;20033;-69
2021/11/03 05:29:01;;;;;;;5.95;1.20;;;17.30;72.60;;;;;;5057694;28;20037;-69
2021/11/03 05:32:07;;;;;;;4.22;1.40;;;17.40;72.70;;;;;;5053808;28;20115;-69
2021/11/03 05:35:02;;;;;;;5.35;1.73;;;17.40;72.60;;;;;;5057535;28;20048;-69
2021/11/03 05:37:28;;;;;;;5.40;1.40;;;17.40;72.40;;;;;;5054147;28;20037;-69
2021/11/03 05:39:55;;;;;;;6.80;1.40;;;17.50;72.30;;;;;;5055737;28;20032;-69
2021/11/03 05:42:22;;;;;;;7.40;1.25;;;17.50;72.10;;;;;;5066263;28;20568;-70
2021/11/03 05:44:48;;;;;;;5.00;0.77;;;17.50;72.20;;;;;;5064420;28;20384;-70
2021/11/03 05:47:24;;;;;;;2.92;1.10;;;17.50;72.00;;;;;;5065823;28;20024;-69
2021/11/03 05:49:52;;;;;;;2.58;1.02;;;17.50;71.90;;;;;;5065699;28;20031;-69
2021/11/03 05:52:19;;;;;;;5.53;1.48;;;17.60;72.20;;;;;;5062126;28;20028;-70
2021/11/03 05:54:46;;;;;;;5.78;1.70;;;17.70;72.30;;;;;;5067451;28;20029;-69
2021/11/03 05:57:26;;;;;;;6.93;1.58;;;17.80;72.30;;;;;;5067329;28;20028;-69
2021/11/03 05:59:54;;;;;;;12.07;1.20;;;17.80;72.10;;;;;;5063363;28;20103;-69
2021/11/03 06:02:21;;;;;;;8.02;2.17;;;17.90;72.30;;;;;;5065906;28;20090;-70
2021/11/03 06:04:48;;;;;;;4.90;1.10;;;17.90;72.50;;;;;;5063771;28;20056;-69
2021/11/03 06:07:16;;;;;;;4.45;1.02;;;18.00;72.10;;;;;;5065955;28;20028;-69
2021/11/03 06:09:43;;;;;;;5.70;1.08;;;18.00;72.10;;;;;;5067334;28;20054;-69
2021/11/03 06:12:11;;;;;;;5.15;0.85;;;18.00;72.30;;;;;;5059320;28;20021;-69
2021/11/03 06:14:37;;;;;;;3.88;1.33;;;18.10;72.40;;;;;;5064115;28;20436;-69
2021/11/03 06:17:04;;;;;;;4.68;1.88;;;18.10;72.20;;;;;;5062354;28;20487;-69
2021/11/03 06:19:30;;;;;;;7.85;1.05;;;18.10;71.70;;;;;;5066351;28;20019;-69
2021/11/03 06:21:57;;;;;;;3.72;0.88;;;18.20;71.40;;;;;;5063851;28;20021;-69
2021/11/03 06:24:24;;;;;;;5.03;1.95;;;18.20;71.50;;;;;;5059348;28;20040;-69
2021/11/03 06:26:51;;;;;;;4.28;1.20;;;18.20;71.50;;;;;;5067324;28;20035;-69
2021/11/03 06:29:17;;;;;;;4.43;1.05;;;18.30;71.40;;;;;;5061824;28;20509;-69
2021/11/03 06:31:44;;;;;;;5.55;1.17;;;18.30;71.40;;;;;;5064538;28;20096;-69
2021/11/03 06:34:10;;;;;;;3.80;1.63;;;18.30;71.50;;;;;;5058118;28;20045;-69
2021/11/03 06:36:37;;;;;;;2.97;0.70;;;18.30;71.70;;;;;;5060132;28;20020;-69
2021/11/03 06:39:07;;;;;;;1.73;0.90;;;18.30;71.80;;;;;;5066398;28;20020;-70
2021/11/03 06:41:35;;;;;;;4.03;0.75;;;18.40;72.00;;;;;;5061659;28;20391;-70
2021/11/03 06:44:02;;;;;;;7.55;1.38;;;18.40;71.90;;;;;;5064565;28;20447;-69
2021/11/03 06:46:29;;;;;;;10.23;1.30;;;18.50;72.00;;;;;;5067995;28;20034;-69
2021/11/03 06:48:56;;;;;;;4.70;1.10;;;18.50;72.00;;;;;;5061217;28;20468;-69
2021/11/03 06:51:23;;;;;;;10.57;1.08;;;18.50;71.60;;;;;;5063235;28;20025;-69
2021/11/03 06:53:49;;;;;;;9.23;0.98;;;18.60;71.10;;;;;;5065542;28;20129;-70
2021/11/03 06:56:16;;;;;;;6.10;1.92;;;18.60;70.20;;;;;;5065223;28;20024;-69
2021/11/03 06:58:42;;;;;;;6.80;1.10;;;18.60;70.10;;;;;;5059275;28;20048;-69
2021/11/03 07:01:09;;;;;;;4.13;1.15;;;18.60;70.00;;;;;;5066954;28;20024;-69
2021/11/03 07:03:37;;;;;;;6.22;0.90;;;18.70;69.70;;;;;;5066351;28;20111;-69
2021/11/03 07:06:04;;;;;;;3.13;1.23;;;18.70;69.20;;;;;;5064800;28;20027;-69
2021/11/03 07:08:32;;;;;;;2.15;0.90;;;18.80;69.20;;;;;;5065365;28;20490;-69
2021/11/03 07:11:00;;;;;;;4.30;2.20;;;18.80;69.30;;;;;;5068316;28;20103;-70
2021/11/03 07:13:28;;;;;;;4.32;1.05;;;18.80;69.30;;;;;;5065344;28;20028;-70
2021/11/03 07:15:56;;;;;;;5.88;0.88;;;18.80;68.70;;;;;;5065957;28;20016;-69
2021/11/03 07:18:23;;;;;;;3.03;1.20;;;18.80;67.00;;;;;;5063530;28;20078;-69
2021/11/03 07:20:51;;;;;;;3.40;0.95;;;18.80;66.50;;;;;;5066068;28;20025;-69
2021/11/03 07:23:20;;;;;;;4.47;0.75;;;18.80;66.10;;;;;;5069950;28;20529;-69
2021/11/03 07:25:47;;;;;;;3.78;1.00;;;18.90;65.70;;;;;;5068305;28;20062;-70
2021/11/03 07:28:15;;;;;;;3.22;1.58;;;18.90;66.00;;;;;;5068815;28;20016;-69
2021/11/03 07:30:42;;;;;;;4.20;0.93;;;19.00;66.50;;;;;;5058215;28;20029;-69
2021/11/03 07:33:10;;;;;;;1.55;0.80;;;19.10;66.60;;;;;;5065731;28;20095;-69
2021/11/03 07:35:37;;;;;;;5.95;1.35;;;19.20;65.80;;;;;;5064711;28;20514;-69
2021/11/03 07:38:05;;;;;;;8.65;1.00;;;19.30;65.60;;;;;;5067388;28;20430;-70
2021/11/03 07:40:34;;;;;;;3.13;1.05;;;19.40;65.10;;;;;;5068776;28;20025;-70
2021/11/03 07:43:03;;;;;;;2.13;1.00;;;19.50;64.50;;;;;;5066223;28;20024;-69
2021/11/03 07:45:31;;;;;;;4.15;0.80;;;19.70;64.40;;;;;;5061581;28;20111;-69
2021/11/03 07:47:59;;;;;;;2.80;0.80;;;19.90;63.60;;;;;;5066773;28;20056;-69
2021/11/03 07:50:31;;;;;;;5.85;0.70;;;20.00;63.00;;;;;;5067737;28;20104;-69
2021/11/03 07:52:58;;;;;;;5.93;1.27;;;20.00;62.20;;;;;;5062673;28;20025;-69
2021/11/03 07:55:27;;;;;;;2.67;0.90;;;20.10;61.90;;;;;;5067153;28;20047;-69
2021/11/03 07:57:53;;;;;;;4.18;1.20;;;20.10;61.70;;;;;;5061011;28;20021;-69
2021/11/03 08:00:24;;;;;;;5.72;1.30;;;20.10;61.20;;;;;;5059462;28;20395;-70
2021/11/03 08:02:50;;;;;;;3.95;1.25;;;20.20;62.40;;;;;;5067903;28;20035;-69
2021/11/03 08:05:17;;;;;;;6.60;1.45;;;20.30;61.80;;;;;;5063150;28;20393;-71
2021/11/03 08:07:44;;;;;;;6.10;1.10;;;20.50;61.30;;;;;;5061600;28;20112;-71
2021/11/03 08:10:14;;;;;;;3.72;0.90;;;20.60;60.70;;;;;;5064353;28;20494;-69
2021/11/03 08:12:42;;;;;;;5.18;1.88;;;20.70;59.80;;;;;;5065131;28;20025;-70
2021/11/03 08:15:10;;;;;;;4.25;1.35;;;20.80;59.00;;;;;;5069914;28;20394;-70
2021/11/03 08:17:40;;;;;;;3.78;0.70;;;20.80;58.90;;;;;;5062571;28;20028;-69
2021/11/03 08:20:10;;;;;;;4.78;1.10;;;20.80;59.20;;;;;;5071032;28;20020;-70
2021/11/03 08:22:37;;;;;;;5.18;1.40;;;20.80;59.30;;;;;;5067059;28;20052;-70
2021/11/03 08:25:04;;;;;;;8.88;1.20;;;20.70;59.60;;;;;;5058458;28;20070;-70
2021/11/03 08:27:30;;;;;;;3.63;1.10;;;20.80;59.80;;;;;;5063150;28;20012;-69
2021/11/03 08:29:57;;;;;;;6.10;2.35;;;20.80;59.20;;;;;;5068676;28;20548;-69
2021/11/03 08:32:31;;;;;;;5.63;1.20;;;20.90;59.10;;;;;;5063197;28;20024;-69
2021/11/03 08:34:58;;;;;;;3.00;0.93;;;21.00;59.10;;;;;;5059650;28;20076;-69
2021/11/03 08:37:34;;;;;;;6.00;2.17;;;21.10;59.20;;;;;;5060994;28;20020;-69
2021/11/03 08:40:04;;;;;;;2.70;0.90;;;21.30;58.70;;;;;;5063957;28;20020;-69
2021/11/03 08:42:31;;;;;;;7.05;1.20;;;21.40;58.40;;;;;;5066785;28;20005;-70
2021/11/03 08:44:58;;;;;;;4.43;1.20;;;21.60;57.30;;;;;;5062121;28;20036;-70
2021/11/03 08:47:25;;;;;;;11.05;1.40;;;21.70;56.80;;;;;;5065114;28;20045;-69
2021/11/03 08:49:53;;;;;;;2.30;0.98;;;21.80;56.90;;;;;;5064362;28;20020;-69
2021/11/03 08:52:21;;;;;;;9.98;1.70;;;21.80;56.50;;;;;;5068192;28;20009;-69
2021/11/03 08:54:49;;;;;;;6.07;1.33;;;21.90;56.70;;;;;;5064446;28;20069;-69
2021/11/03 08:57:19;;;;;;;3.80;1.25;;;21.90;57.00;;;;;;5062297;28;20021;-70
2021/11/03 08:59:50;;;;;;;6.43;1.70;;;21.90;57.30;;;;;;5061117;28;20020;-69
2021/11/03 09:02:16;;;;;;;6.72;1.65;;;21.90;57.80;;;;;;5065994;28;20171;-69
2021/11/03 09:04:45;;;;;;;3.33;1.13;;;22.00;57.40;;;;;;5065741;28;20033;-70
2021/11/03 09:07:13;;;;;;;8.32;1.38;;;22.00;56.20;;;;;;5056386;28;20032;-70
2021/11/03 09:09:45;;;;;;;6.15;1.25;;;22.00;56.80;;;;;;5063129;28;20102;-70
2021/11/03 09:12:13;;;;;;;8.10;2.58;;;22.10;57.50;;;;;;5059212;28;20100;-70
2021/11/03 09:14:41;;;;;;;8.30;1.45;;;22.20;57.20;;;;;;5067103;28;20479;-69
2021/11/03 09:17:09;;;;;;;6.03;1.10;;;22.20;56.60;;;;;;5059577;28;20052;-70
2021/11/03 09:19:36;;;;;;;3.42;1.08;;;22.30;56.20;;;;;;5062302;28;20384;-70
2021/11/03 09:22:05;;;;;;;5.40;1.23;;;22.30;56.60;;;;;;5061644;28;20383;-69
2021/11/03 09:24:34;;;;;;;6.75;1.25;;;22.40;57.10;;;;;;5061334;28;20123;-70
2021/11/03 09:27:05;;;;;;;3.78;1.20;;;22.50;56.80;;;;;;5060808;28;20042;-70
2021/11/03 09:29:34;;;;;;;3.08;1.15;;;22.50;56.60;;;;;;5063532;28;20032;-69
2021/11/03 09:32:00;;;;;;;9.27;1.15;;;22.60;56.60;;;;;;5065738;28;20052;-69
2021/11/03 09:34:27;;;;;;;7.60;1.35;;;22.60;55.60;;;;;;5061729;28;20108;-70
2021/11/03 09:36:55;;;;;;;3.70;0.77;;;22.60;55.40;;;;;;5064705;28;20029;-70
2021/11/03 09:39:22;;;;;;;6.43;1.25;;;22.50;55.20;;;;;;5063181;28;20116;-70
2021/11/03 09:41:52;;;;;;;4.45;1.10;;;22.60;55.00;;;;;;5063508;28;20434;-69
2021/11/03 09:44:22;;;;;;;9.55;1.85;;;22.60;56.30;;;;;;5067208;28;20064;-70
2021/11/03 09:46:55;;;;;;;8.25;1.90;;;22.50;56.20;;;;;;5067159;28;20483;-70
2021/11/03 09:49:42;;;;;;;4.25;1.20;;;22.60;56.10;;;;;;5056742;28;20021;-70
2021/11/03 09:52:24;;;;;;;9.07;2.40;;;22.70;55.50;;;;;;5065632;28;20036;-69
2021/11/03 09:54:54;;;;;;;2.40;1.05;;;22.70;53.80;;;;;;5055709;28;20070;-69
2021/11/03 09:57:38;;;;;;;7.45;1.35;;;22.60;53.70;;;;;;5066113;28;20012;-69
2021/11/03 10:00:30;;;;;;;2.53;0.80;;;22.60;54.70;;;;;;5060856;28;20012;-70
2021/11/03 10:03:11;;;;;;;5.10;2.10;;;22.60;55.10;;;;;;5062434;28;20025;-69
2021/11/03 10:06:13;;;;;;;4.65;1.13;;;22.60;53.50;;;;;;5062984;28;20018;-70
2021/11/03 10:08:44;;;;;;;8.60;0.93;;;22.60;54.20;;;;;;5065574;28;20376;-70
2021/11/03 10:11:21;;;;;;;5.95;2.03;;;22.70;53.60;;;;;;5056947;28;20013;-69
2021/11/03 10:13:49;;;;;;;3.45;1.08;;;22.80;54.10;;;;;;5068046;28;20024;-70
2021/11/03 10:16:16;;;;;;;3.47;1.05;;;22.90;53.10;;;;;;5059708;28;20025;-69
2021/11/03 10:19:07;;;;;;;5.38;1.08;;;22.90;52.40;;;;;;5061774;28;20029;-69
2021/11/03 10:21:43;;;;;;;3.42;1.15;;;22.90;51.60;;;;;;5057966;28;20116;-70
2021/11/03 10:24:12;;;;;;;1.73;0.80;;;23.00;52.30;;;;;;5067044;28;20079;-69
2021/11/03 10:26:50;;;;;;;4.13;1.00;;;23.10;52.70;;;;;;5065465;28;20040;-69
2021/11/03 10:29:28;;;;;;;5.45;0.95;;;23.30;52.40;;;;;;5063342;28;20020;-69
2021/11/03 10:31:57;;;;;;;5.68;1.55;;;23.30;51.10;;;;;;5063982;28;20018;-70
2021/11/03 10:34:51;;;;;;;3.22;1.40;;;23.40;51.40;;;;;;5056197;28;20057;-70
2021/11/03 10:37:17;;;;;;;5.47;1.23;;;23.40;52.80;;;;;;5061817;28;20032;-69
2021/11/03 10:39:56;;;;;;;6.13;1.15;;;23.30;53.30;;;;;;5069747;28;20048;-69
2021/11/03 10:42:29;;;;;;;5.30;1.40;;;23.20;53.30;;;;;;5067227;28;20028;-69
2021/11/03 10:45:27;;;;;;;3.78;1.50;;;23.10;54.00;;;;;;5064890;28;20079;-69
2021/11/03 10:48:18;;;;;;;5.20;1.50;;;23.00;55.10;;;;;;5061404;28;20029;-69
2021/11/03 10:50:57;;;;;;;8.07;2.78;;;22.80;56.00;;;;;;5066238;28;20112;-70
2021/11/03 10:53:30;;;;;;;3.75;1.13;;;22.80;57.30;;;;;;5069297;28;20103;-70
2021/11/03 10:56:04;;;;;;;5.05;1.50;;;22.80;58.10;;;;;;5068330;28;20020;-70
2021/11/03 10:58:36;;;;;;;2.47;1.05;;;22.70;57.70;;;;;;5070230;28;20463;-70
2021/11/03 11:01:25;;;;;;;5.07;1.38;;;22.60;56.60;;;;;;5071951;28;20028;-69
2021/11/03 11:03:54;;;;;;;7.25;2.22;;;22.60;56.60;;;;;;5064156;28;20079;-69
2021/11/03 11:06:27;;;;;;;7.50;1.10;;;22.50;57.30;;;;;;5064012;28;20391;-70
2021/11/03 11:09:13;;;;;;;7.30;1.50;;;22.50;56.60;;;;;;5067923;28;20456;-69
2021/11/03 11:11:43;;;;;;;6.13;2.08;;;22.50;58.10;;;;;;5061354;28;20519;-70
2021/11/03 11:14:19;;;;;;;6.95;1.35;;;22.50;59.20;;;;;;5067264;28;20031;-70
2021/11/03 11:16:57;;;;;;;6.38;1.58;;;22.40;59.30;;;;;;5063086;28;20024;-70
2021/11/03 11:19:34;;;;;;;4.72;1.45;;;22.40;59.70;;;;;;5071206;28;20012;-70
2021/11/03 11:22:06;;;;;;;4.90;1.35;;;22.40;59.10;;;;;;5065723;28;20430;-70
2021/11/03 11:24:55;;;;;;;5.38;1.27;;;22.40;59.70;;;;;;5064013;28;20117;-69
2021/11/03 11:27:28;;;;;;;6.30;1.38;;;22.40;59.80;;;;;;5064753;28;20130;-70
2021/11/03 11:30:16;;;;;;;8.30;1.80;;;22.40;59.10;;;;;;5061777;28;20548;-70
2021/11/03 11:32:56;;;;;;;2.75;1.17;;;22.50;59.30;;;;;;5062533;28;20033;-70
2021/11/03 11:35:27;;;;;;;5.32;2.40;;;22.50;59.40;;;;;;5061026;28;20041;-70
2021/11/03 11:38:19;;;;;;;5.32;1.13;;;22.50;61.20;;;;;;5067742;28;20039;-70
2021/11/03 11:40:51;;;;;;;3.83;1.83;;;22.50;60.50;;;;;;5069395;28;20020;-69
2021/11/03 11:43:39;;;;;;;5.00;1.17;;;22.60;60.10;;;;;;5064465;28;20029;-70
2021/11/03 11:46:19;;;;;;;7.70;1.60;;;22.70;59.90;;;;;;5068000;28;20016;-69
2021/11/03 11:48:55;;;;;;;3.17;1.33;;;22.80;60.60;;;;;;5065855;28;20043;-69
2021/11/03 11:51:34;;;;;;;4.68;1.98;;;22.90;60.40;;;;;;5070776;28;20017;-69
2021/11/03 11:54:02;;;;;;;9.15;1.10;;;23.00;60.50;;;;;;5064679;28;20483;-70
2021/11/03 11:56:37;;;;;;;8.55;1.30;;;23.10;58.40;;;;;;5064219;28;20399;-70
2021/11/03 11:59:12;;;;;;;6.05;1.77;;;23.20;58.30;;;;;;5061209;28;20415;-69
2021/11/03 12:01:47;;;;;;;5.32;1.58;;;23.20;58.30;;;;;;5067056;28;20032;-70
2021/11/03 12:04:17;;;;;;;2.95;1.10;;;23.30;57.00;;;;;;5058792;28;20029;-70
2021/11/03 12:06:51;;;;;;;10.55;1.30;;;23.20;57.20;;;;;;5063209;28;20367;-70
2021/11/03 12:10:01;;;;;;;5.35;1.55;;;23.20;57.50;;;;;;5063544;28;20099;-69
2021/11/03 12:12:27;;;;;;;3.72;1.15;;;23.10;58.30;;;;;;5056414;28;20060;-70
2021/11/03 12:14:56;;;;;;;3.70;0.90;;;23.10;57.60;;;;;;5062784;28;20031;-69
2021/11/03 12:17:40;;;;;;;7.45;0.90;;;23.00;56.10;;;;;;5059656;28;20025;-69
2021/11/03 12:20:24;;;;;;;4.18;1.02;;;22.90;57.40;;;;;;5067600;28;20016;-69
2021/11/03 12:22:58;;;;;;;3.83;1.02;;;22.90;57.30;;;;;;5068737;28;20432;-69
2021/11/03 12:25:24;;;;;;;3.25;1.45;;;22.80;57.30;;;;;;5062979;28;20075;-70
2021/11/03 12:27:55;;;;;;;4.70;0.80;;;22.80;58.00;;;;;;5067783;28;20104;-69
2021/11/03 12:30:35;;;;;;;5.20;1.13;;;22.70;58.10;;;;;;5058312;28;20013;-69
2021/11/03 12:33:06;;;;;;;9.88;1.58;;;22.70;58.90;;;;;;5069544;28;20349;-69
2021/11/03 12:35:32;;;;;;;9.63;1.50;;;22.70;59.60;;;;;;5067689;28;20051;-69
2021/11/03 12:38:12;;;;;;;7.25;1.27;;;22.60;59.60;;;;;;5066849;28;20047;-69
2021/11/03 12:40:46;;;;;;;9.02;2.53;;;22.60;59.20;;;;;;5066231;28;20029;-69
2021/11/03 12:43:25;;;;;;;3.72;1.35;;;22.70;58.70;;;;;;5067381;28;20024;-69
2021/11/03 12:46:07;;;;;;;8.98;3.35;;;22.80;58.80;;;;;;5064929;28;20021;-70
2021/11/03 12:48:50;;;;;;;5.35;1.20;;;22.90;58.10;;;;;;5058477;28;20368;-70
2021/11/03 12:51:26;;;;;;;5.32;1.15;;;23.00;57.30;;;;;;5067163;28;20017;-68
2021/11/03 12:54:15;;;;;;;3.28;1.20;;;23.20;56.40;;;;;;5061698;28;20494;-70
2021/11/03 12:57:06;;;;;;;3.28;1.08;;;23.20;56.10;;;;;;5054224;28;20036;-71
2021/11/03 12:59:38;;;;;;;5.47;1.05;;;23.20;56.40;;;;;;5059135;28;20490;-70
2021/11/03 13:02:16;;;;;;;5.43;2.13;;;23.20;56.90;;;;;;5066502;28;20044;-70
2021/11/03 13:04:59;;;;;;;7.38;1.08;;;23.20;57.90;;;;;;5058753;28;20039;-69
2021/11/03 13:07:47;;;;;;;5.93;2.65;;;23.20;58.50;;;;;;5065124;28;20075;-69
2021/11/03 13:10:21;;;;;;;5.95;1.23;;;23.20;59.00;;;;;;5060723;28;20009;-70
2021/11/03 13:12:58;;;;;;;7.78;0.93;;;23.10;58.40;;;;;;5063240;28;20017;-69
2021/11/03 13:15:30;;;;;;;4.82;1.23;;;23.00;58.80;;;;;;5063115;28;20021;-70
2021/11/03 13:18:09;;;;;;;4.20;1.52;;;23.00;59.50;;;;;;5061586;28;20087;-70
2021/11/03 13:20:37;;;;;;;4.65;1.50;;;23.00;59.10;;;;;;5064361;28;20078;-68
2021/11/03 13:23:05;;;;;;;2.75;1.08;;;22.80;60.10;;;;;;5058739;28;20074;-69
2021/11/03 13:25:45;;;;;;;8.55;2.28;;;22.80;60.20;;;;;;5059194;28;20483;-69
2021/11/03 13:28:37;;;;;;;6.57;1.98;;;22.90;60.70;;;;;;5065191;28;20099;-70
2021/11/03 13:31:15;;;;;;;3.78;0.82;;;23.00;59.80;;;;;;5064637;28;20020;-71
2021/11/03 13:33:56;;;;;;;5.82;1.00;;;22.90;60.00;;;;;;5062941;28;20040;-69
2021/11/03 13:36:30;;;;;;;8.00;1.70;;;22.90;60.00;;;;;;5057899;28;20029;-72
2021/11/03 13:39:14;;;;;;;4.43;1.25;;;23.00;59.90;;;;;;5058703;28;20157;-68
2021/11/03 13:41:45;;;;;;;7.45;1.17;;;23.00;60.50;;;;;;5068395;28;21028;-68
2021/11/03 13:44:32;;;;;;;7.78;1.30;;;22.90;61.20;;;;;;5058781;28;20036;-69
2021/11/03 13:47:07;;;;;;;4.15;1.48;;;23.00;60.70;;;;;;5050861;28;20048;-69
2021/11/03 13:49:42;;;;;;;7.25;2.58;;;22.90;61.60;;;;;;5064089;28;20028;-70
2021/11/03 13:52:13;;;;;;;4.57;1.48;;;23.00;61.70;;;;;;5056940;28;20012;-69
2021/11/03 13:54:57;;;;;;;4.00;1.00;;;23.00;60.90;;;;;;5061638;28;20033;-68
2021/11/03 13:57:36;;;;;;;3.60;1.13;;;23.00;60.00;;;;;;5056371;28;20008;-68
2021/11/03 14:00:29;;;;;;;8.07;1.23;;;23.00;59.40;;;;;;5061935;28;20107;-68
2021/11/03 14:02:56;;;;;;;6.82;0.93;;;22.90;59.70;;;;;;5057832;28;20434;-69
2021/11/03 14:05:41;;;;;;;4.97;1.58;;;22.90;59.80;;;;;;5064963;28;20025;-69
2021/11/03 14:08:26;;;;;;;7.33;1.33;;;22.90;60.90;;;;;;5067221;28;20506;-69
2021/11/03 14:10:53;;;;;;;3.92;1.13;;;22.90;61.30;;;;;;5060834;28;20446;-68
2021/11/03 14:13:20;;;;;;;6.72;1.35;;;22.90;60.90;;;;;;5064174;28;20091;-69
2021/11/03 14:15:47;;;;;;;6.07;1.77;;;22.80;61.10;;;;;;5067008;28;20120;-69
2021/11/03 14:18:15;;;;;;;7.85;1.30;;;22.80;61.00;;;;;;5062993;28;20505;-68
2021/11/03 14:20:48;;;;;;;5.75;1.10;;;22.80;61.20;;;;;;5057506;28;20044;-69
2021/11/03 14:23:18;;;;;;;4.43;1.80;;;22.80;60.90;;;;;;5062471;28;20060;-68
2021/11/03 14:25:46;;;;;;;5.30;1.48;;;22.70;60.90;;;;;;5062236;28;20009;-68
2021/11/03 14:28:16;;;;;;;3.88;2.00;;;22.70;61.30;;;;;;5065139;28;20021;-71
2021/11/03 14:31:00;;;;;;;10.77;5.22;;;22.60;61.80;;;;;;5064574;28;20397;-67
2021/11/03 14:33:29;;;;;;;8.05;2.40;;;22.60;61.80;;;;;;5061838;28;20033;-68
2021/11/03 14:35:58;;;;;;;4.90;1.58;;;22.60;62.00;;;;;;5059351;28;20078;-68
2021/11/03 14:38:36;;;;;;;5.82;1.30;;;22.60;62.10;;;;;;5057908;28;20020;-69
2021/11/03 14:41:05;;;;;;;5.65;1.20;;;22.60;62.10;;;;;;5067282;28;20040;-67
2021/11/03 14:43:32;;;;;;;4.72;1.13;;;22.50;62.60;;;;;;5060260;28;20466;-67
2021/11/03 14:45:59;;;;;;;3.22;1.40;;;22.50;63.10;;;;;;5065692;28;20082;-69
2021/11/03 14:48:32;;;;;;;4.30;1.45;;;22.50;63.20;;;;;;5054074;28;20476;-67
2021/11/03 14:50:58;;;;;;;7.55;1.52;;;22.50;63.00;;;;;;5066055;28;20510;-70
2021/11/03 14:53:27;;;;;;;5.50;1.52;;;22.50;63.20;;;;;;5062292;28;20115;-65
2021/11/03 14:55:56;;;;;;;15.43;2.72;;;22.50;63.60;;;;;;5061240;28;20526;-65
2021/11/03 14:58:24;;;;;;;9.80;1.40;;;22.50;63.70;;;;;;5054676;28;20051;-66
2021/11/03 15:00:55;;;;;;;10.65;1.52;;;22.50;63.90;;;;;;5060652;28;20175;-70
2021/11/03 15:03:38;;;;;;;4.63;1.38;;;22.50;64.00;;;;;;5061265;28;20135;-68
2021/11/03 15:06:05;;;;;;;11.10;1.60;;;22.40;64.30;;;;;;5060514;28;20037;-70
2021/11/03 15:08:38;;;;;;;9.07;2.22;;;22.40;64.80;;;;;;5067135;28;20024;-71
2021/11/03 15:11:06;;;;;;;7.95;1.80;;;22.40;64.50;;;;;;5059470;28;20024;-68
2021/11/03 15:13:36;;;;;;;5.38;1.50;;;22.40;64.80;;;;;;5062366;28;20009;-70
2021/11/03 15:16:24;;;;;;;10.48;4.43;;;22.50;64.70;;;;;;5067127;28;20197;-70
2021/11/03 15:18:51;;;;;;;8.50;2.50;;;22.40;65.30;;;;;;5061100;28;20417;-71
2021/11/03 15:21:19;;;;;;;7.93;2.85;;;22.40;64.30;;;;;;5068110;28;20029;-72
2021/11/03 15:23:47;;;;;;;5.05;1.38;;;22.40;64.80;;;;;;5059781;28;20025;-67
2021/11/03 15:26:13;;;;;;;8.48;1.45;;;22.40;64.30;;;;;;5068711;28;20024;-68
2021/11/03 15:28:40;;;;;;;7.95;1.77;;;22.40;65.00;;;;;;5068749;28;20013;-69
2021/11/03 15:31:38;;;;;;;6.82;1.60;;;22.40;64.80;;;;;;5067253;28;20532;-71
2021/11/03 15:34:21;;;;;;;6.70;2.83;;;22.30;64.60;;;;;;5057797;28;20127;-73
2021/11/03 15:36:49;;;;;;;4.45;1.67;;;22.30;64.30;;;;;;5064137;28;20357;-70
2021/11/03 15:39:19;;;;;;;8.50;1.60;;;22.20;63.90;;;;;;5064535;28;20502;-70
2021/11/03 15:41:47;;;;;;;7.35;1.15;;;22.20;63.80;;;;;;5054416;28;20452;-70
2021/11/03 15:44:14;;;;;;;7.22;1.48;;;22.20;63.90;;;;;;5058008;28;20033;-68
2021/11/03 15:46:43;;;;;;;3.35;1.00;;;22.10;63.90;;;;;;5061838;28;20032;-68